This is the latest recevied weather packets stored in our database for station/object HB9CYX-13. If no packets are shown the sender has not sent any weather packets the latest 10 day(s).
| Time | Temp. | Humidity | Pressure | Rain* | Wind** | Luminosity | Snow |
|---|---|---|---|---|---|---|---|
| 1777253151 | 7.22° C | 59% | 1023.3 hPa | 0 mm | - | - | - |
| 1777252404 | 7.22° C | 59% | 1023.3 hPa | 0 mm | - | - | - |
| 1777251656 | 6.67° C | 60% | 1023.4 hPa | 0 mm | - | - | - |
| 1777250908 | 7.78° C | 59% | 1023.4 hPa | 0 mm | - | - | - |
| 1777250161 | 7.22° C | 60% | 1023.5 hPa | 0 mm | - | - | - |
| 1777249415 | 7.22° C | 59% | 1023.6 hPa | 0 mm | - | - | - |
| 1777248668 | 7.22° C | 59% | 1023.7 hPa | 0 mm | - | - | - |
| 1777247922 | 7.78° C | 58% | 1023.6 hPa | 0 mm | - | - | - |
| 1777247176 | 8.33° C | 56% | 1023.5 hPa | 0 mm | - | - | - |
| 1777246428 | 8.33° C | 56% | 1023.6 hPa | 0 mm | - | - | - |
| 1777245680 | 7.78° C | 55% | 1023.6 hPa | 0 mm | - | - | - |
| 1777244933 | 8.33° C | 56% | 1023.5 hPa | 0 mm | - | - | - |
| 1777244185 | 8.89° C | 54% | 1023.3 hPa | 0 mm | - | - | - |
| 1777243438 | 8.89° C | 54% | 1023.4 hPa | 0 mm | - | - | - |
| 1777242690 | 8.89° C | 52% | 1023.2 hPa | 0 mm | - | - | - |
| 1777241942 | 9.44° C | 51% | 1023.1 hPa | 0 mm | - | - | - |
| 1777241195 | 9.44° C | 51% | 1023 hPa | 0 mm | - | - | - |
| 1777240447 | 9.44° C | 50% | 1023 hPa | 0 mm | - | - | - |
| 1777239700 | 10° C | 50% | 1023 hPa | 0 mm | - | - | - |
| 1777238953 | 9.44° C | 49% | 1023.1 hPa | 0 mm | - | - | - |
| 1777238204 | 10.56° C | 46% | 1022.8 hPa | 0 mm | - | - | - |
| 1777237457 | 10.56° C | 46% | 1022.7 hPa | 0 mm | - | - | - |
| 1777236711 | 11.67° C | 45% | 1022.6 hPa | 0 mm | - | - | - |
| 1777235964 | 11.67° C | 43% | 1022.5 hPa | 0 mm | - | - | - |
| 1777235217 | 11.67° C | 43% | 1022.4 hPa | 0 mm | - | - | - |
* Rain latest hour (hover to see other rain measurements)
** Current wind speed in m/s (hover to see current wind gust speed)